createdAt,value
2023-08-11T00:01:09.115Z,10.30
2023-08-11T00:03:37.262Z,8.10
2023-08-11T00:06:08.539Z,10.20
2023-08-11T00:08:39.369Z,8.90
2023-08-11T00:13:36.686Z,9.90
2023-08-11T00:16:06.105Z,10.30
2023-08-11T00:18:34.218Z,9.10
2023-08-11T00:21:03.587Z,10.30
2023-08-11T00:23:31.502Z,10.80
2023-08-11T00:26:00.091Z,11.00
2023-08-11T00:28:28.336Z,13.70
2023-08-11T00:30:56.568Z,10.90
2023-08-11T00:33:24.953Z,7.20
2023-08-11T00:35:53.079Z,8.30
2023-08-11T00:38:24.955Z,9.60
2023-08-11T00:40:53.222Z,10.30
2023-08-11T00:43:21.231Z,12.60
2023-08-11T00:45:50.514Z,11.00
2023-08-11T00:48:18.623Z,8.70
2023-08-11T00:50:47.140Z,9.90
2023-08-11T00:53:15.406Z,10.00
2023-08-11T00:55:44.437Z,14.80
2023-08-11T00:58:13.173Z,9.20
2023-08-11T01:00:41.072Z,7.10
2023-08-11T01:03:09.830Z,10.70
2023-08-11T01:05:46.761Z,9.00
2023-08-11T01:08:36.190Z,12.10
2023-08-11T01:11:13.606Z,7.40
2023-08-11T01:13:45.885Z,8.70
2023-08-11T01:16:14.715Z,9.10
2023-08-11T01:18:45.295Z,11.40
2023-08-11T01:21:17.367Z,9.00
2023-08-11T01:23:45.786Z,8.30
2023-08-11T01:26:14.642Z,9.90
2023-08-11T01:28:43.293Z,14.50
2023-08-11T01:31:12.255Z,7.70
2023-08-11T01:33:40.217Z,10.90
2023-08-11T01:36:09.661Z,8.60
2023-08-11T01:38:37.700Z,12.10
2023-08-11T01:41:07.704Z,8.90
2023-08-11T01:43:37.778Z,8.30
2023-08-11T01:46:05.822Z,7.50
2023-08-11T01:48:34.955Z,10.00
2023-08-11T01:51:03.477Z,13.00
2023-08-11T01:53:31.523Z,12.00
2023-08-11T01:55:59.776Z,7.70
2023-08-11T01:58:27.881Z,8.80
2023-08-11T02:00:55.760Z,7.50
2023-08-11T02:03:23.855Z,10.90
2023-08-11T02:05:51.919Z,7.70
2023-08-11T02:08:20.791Z,11.30
2023-08-11T02:10:49.064Z,8.10
2023-08-11T02:13:17.006Z,7.90
2023-08-11T02:15:45.190Z,6.50
2023-08-11T02:18:13.110Z,9.20
2023-08-11T02:20:42.569Z,7.70
2023-08-11T02:23:10.350Z,7.90
2023-08-11T02:25:38.306Z,7.90
2023-08-11T02:28:06.459Z,8.10
2023-08-11T02:30:34.445Z,10.30
2023-08-11T02:33:02.476Z,9.00
2023-08-11T02:35:30.422Z,8.30
2023-08-11T02:37:58.573Z,7.80
2023-08-11T02:40:27.464Z,11.90
2023-08-11T02:43:00.168Z,10.30
2023-08-11T02:45:28.241Z,12.90
2023-08-11T02:47:57.505Z,10.10
2023-08-11T02:50:25.750Z,7.70
2023-08-11T02:52:53.824Z,8.10
2023-08-11T02:55:21.924Z,12.80
2023-08-11T02:57:49.814Z,7.30
2023-08-11T03:00:18.930Z,10.60
2023-08-11T03:02:47.329Z,9.90
2023-08-11T03:05:17.383Z,10.80
2023-08-11T03:10:14.558Z,9.80
2023-08-11T03:12:43.805Z,10.20
2023-08-11T03:15:12.067Z,8.80
2023-08-11T03:17:40.206Z,10.20
2023-08-11T03:20:14.472Z,15.00
2023-08-11T03:22:45.997Z,20.10
2023-08-11T03:25:16.393Z,19.10
2023-08-11T03:27:44.974Z,21.50
2023-08-11T03:30:23.318Z,21.90
2023-08-11T03:32:53.483Z,18.20
2023-08-11T03:35:23.052Z,15.70
2023-08-11T03:37:53.269Z,20.50
2023-08-11T03:40:21.173Z,17.80
2023-08-11T03:42:53.948Z,19.30
2023-08-11T03:45:22.467Z,13.30
2023-08-11T03:47:51.185Z,9.80
2023-08-11T03:50:22.083Z,8.90
2023-08-11T03:52:50.280Z,12.80
2023-08-11T03:55:18.519Z,9.30
2023-08-11T03:57:47.306Z,9.20
2023-08-11T04:00:20.604Z,8.30
2023-08-11T04:02:52.479Z,10.10
2023-08-11T04:05:20.700Z,9.10
2023-08-11T04:07:48.565Z,11.30
2023-08-11T04:10:17.382Z,7.80
2023-08-11T04:12:45.318Z,11.40
2023-08-11T04:15:13.392Z,8.30
2023-08-11T04:17:41.965Z,13.20
2023-08-11T04:20:14.855Z,11.00
2023-08-11T04:22:43.710Z,7.50
2023-08-11T04:25:13.251Z,6.80
2023-08-11T04:27:44.019Z,7.40
2023-08-11T04:30:13.823Z,7.30
2023-08-11T04:32:44.891Z,8.80
2023-08-11T04:35:13.553Z,13.50
2023-08-11T04:37:42.954Z,9.10
2023-08-11T04:40:15.045Z,13.90
2023-08-11T04:42:45.558Z,8.90
2023-08-11T04:45:16.330Z,9.40
2023-08-11T04:50:18.129Z,10.00
2023-08-11T04:52:47.478Z,11.10
2023-08-11T04:55:15.959Z,8.60
2023-08-11T04:57:44.938Z,7.20
2023-08-11T05:00:18.503Z,8.30
2023-08-11T05:02:47.227Z,8.80
2023-08-11T05:05:15.446Z,8.70
2023-08-11T05:07:43.498Z,8.40
2023-08-11T05:10:11.701Z,8.40
2023-08-11T05:12:40.084Z,12.60
2023-08-11T05:15:08.261Z,8.50
2023-08-11T05:17:36.221Z,7.90
2023-08-11T05:20:09.380Z,8.90
2023-08-11T05:22:37.640Z,9.50
2023-08-11T05:25:07.052Z,8.10
2023-08-11T05:27:34.983Z,6.90
2023-08-11T05:30:03.420Z,11.50
2023-08-11T05:32:31.580Z,8.30
2023-08-11T05:35:00.399Z,7.90
2023-08-11T05:37:28.441Z,6.00
2023-08-11T05:39:57.370Z,20.30
2023-08-11T05:42:25.592Z,7.60
2023-08-11T05:44:53.541Z,10.00
2023-08-11T05:47:21.336Z,6.10
2023-08-11T05:49:49.506Z,9.00
2023-08-11T05:52:17.488Z,6.70
2023-08-11T05:54:45.332Z,10.30
2023-08-11T05:57:13.325Z,8.90
2023-08-11T05:59:41.314Z,9.30
2023-08-11T06:02:09.231Z,6.40
2023-08-11T06:04:37.572Z,10.20
2023-08-11T06:07:05.538Z,22.70
2023-08-11T06:09:33.998Z,115.50
2023-08-11T06:12:02.001Z,158.30
2023-08-11T06:14:29.883Z,98.10
2023-08-11T06:16:58.389Z,214.80
2023-08-11T06:19:26.602Z,141.40
2023-08-11T06:21:55.966Z,31.20
2023-08-11T06:24:24.493Z,7.50
2023-08-11T06:26:55.246Z,6.90
2023-08-11T06:29:23.231Z,6.70
2023-08-11T06:31:51.222Z,10.80
2023-08-11T06:34:19.809Z,7.80
2023-08-11T06:36:47.841Z,6.50
2023-08-11T06:39:16.223Z,8.50
2023-08-11T06:41:44.405Z,9.30
2023-08-11T06:44:12.226Z,11.00
2023-08-11T06:46:40.215Z,7.50
2023-08-11T06:49:08.169Z,6.50
2023-08-11T06:51:36.218Z,9.80
2023-08-11T06:54:04.555Z,7.90
2023-08-11T06:56:32.611Z,7.20
2023-08-11T06:59:00.626Z,7.30
2023-08-11T07:01:28.537Z,12.00
2023-08-11T07:03:56.923Z,10.60
2023-08-11T07:06:26.102Z,15.80
2023-08-11T07:08:53.969Z,6.20
2023-08-11T07:11:22.110Z,6.90
2023-08-11T07:13:50.196Z,10.30
2023-08-11T07:16:18.161Z,5.10
2023-08-11T07:18:46.120Z,6.40
2023-08-11T07:21:14.136Z,6.10
2023-08-11T07:23:42.042Z,6.20
2023-08-11T07:29:29.822Z,5.10
2023-08-11T07:31:58.262Z,4.90
2023-08-11T07:34:26.316Z,6.70
2023-08-11T07:36:54.377Z,5.20
2023-08-11T07:39:24.274Z,4.10
2023-08-11T07:41:52.427Z,8.50
2023-08-11T07:44:20.541Z,8.90
2023-08-11T07:46:48.416Z,9.80
2023-08-11T07:49:16.232Z,7.40
2023-08-11T07:51:44.205Z,8.90
2023-08-11T07:54:12.300Z,11.90
2023-08-11T07:56:40.698Z,6.40
2023-08-11T07:59:08.802Z,6.20
2023-08-11T08:01:37.900Z,6.60
2023-08-11T08:04:05.886Z,5.10
2023-08-11T08:06:33.834Z,5.40
2023-08-11T08:09:02.341Z,9.90
2023-08-11T08:11:30.801Z,5.70
2023-08-11T08:13:59.172Z,6.50
2023-08-11T08:16:27.099Z,9.90
2023-08-11T08:18:55.056Z,7.90
2023-08-11T08:21:22.986Z,9.60
2023-08-11T08:23:50.809Z,15.10
2023-08-11T08:26:18.733Z,4.80
2023-08-11T08:28:46.976Z,7.00
2023-08-11T08:31:15.141Z,8.60
2023-08-11T08:33:45.324Z,4.90
2023-08-11T08:36:15.178Z,8.70
2023-08-11T08:38:43.147Z,5.80
2023-08-11T08:41:12.082Z,9.90
2023-08-11T08:43:40.185Z,6.30
2023-08-11T08:46:09.863Z,5.80
2023-08-11T08:48:43.858Z,5.90
2023-08-11T08:51:12.111Z,3.40
2023-08-11T08:53:41.222Z,6.70
2023-08-11T08:56:09.231Z,4.00
2023-08-11T08:58:37.052Z,8.10
2023-08-11T09:01:05.221Z,5.80
2023-08-11T09:03:34.747Z,4.10
2023-08-11T09:06:03.337Z,3.80
2023-08-11T09:08:34.362Z,8.70
2023-08-11T09:11:03.090Z,4.20
2023-08-11T09:13:32.569Z,7.10
2023-08-11T09:16:02.080Z,6.10
2023-08-11T09:18:30.818Z,4.40
2023-08-11T09:20:58.756Z,4.00
2023-08-11T09:23:26.748Z,5.20
2023-08-11T09:25:56.294Z,4.20
2023-08-11T09:28:24.501Z,3.90
2023-08-11T09:30:52.816Z,3.90
2023-08-11T09:33:24.014Z,5.10
2023-08-11T09:35:54.592Z,4.30
2023-08-11T09:40:50.771Z,6.80
2023-08-11T09:43:18.724Z,5.20
2023-08-11T09:45:46.647Z,9.60
2023-08-11T09:48:14.633Z,9.00
2023-08-11T09:50:43.985Z,5.00
2023-08-11T09:53:12.591Z,4.40
2023-08-11T09:55:42.975Z,8.50
2023-08-11T09:58:15.235Z,6.00
2023-08-11T10:00:44.660Z,7.50
2023-08-11T10:03:17.789Z,6.50
2023-08-11T10:05:47.952Z,9.30
2023-08-11T10:08:22.500Z,5.20
2023-08-11T10:10:50.728Z,6.50
2023-08-11T10:13:27.692Z,6.10
2023-08-11T10:15:56.642Z,6.40
2023-08-11T10:18:25.030Z,6.30
2023-08-11T10:20:53.400Z,5.90
2023-08-11T10:23:21.466Z,8.80
2023-08-11T10:25:50.359Z,5.00
2023-08-11T10:28:20.034Z,3.50
2023-08-11T10:30:58.705Z,7.90
2023-08-11T10:33:31.470Z,10.30
2023-08-11T10:36:01.992Z,5.90
2023-08-11T10:38:32.537Z,6.70
2023-08-11T10:43:42.552Z,7.60
2023-08-11T10:46:25.814Z,7.20
2023-08-11T10:49:22.419Z,6.00
2023-08-11T10:51:52.582Z,8.40
2023-08-11T10:54:27.147Z,6.70
2023-08-11T10:56:55.337Z,14.40
2023-08-11T10:59:32.301Z,5.30
2023-08-11T11:02:03.304Z,7.80
2023-08-11T11:04:32.988Z,8.70
2023-08-11T11:07:02.187Z,4.30
2023-08-11T11:09:30.530Z,4.40
2023-08-11T11:11:58.682Z,4.30
2023-08-11T11:14:30.235Z,6.30
2023-08-11T11:17:02.069Z,5.00
2023-08-11T11:19:32.370Z,5.60
2023-08-11T11:22:00.944Z,4.90
2023-08-11T11:24:28.954Z,7.50
2023-08-11T11:26:59.805Z,4.30
2023-08-11T11:29:29.781Z,4.00
2023-08-11T11:32:01.853Z,4.80
2023-08-11T11:34:30.645Z,6.40
2023-08-11T11:36:58.738Z,6.10
2023-08-11T11:39:26.827Z,6.50
2023-08-11T11:41:54.677Z,6.50
2023-08-11T11:44:22.815Z,7.50
2023-08-11T11:46:50.911Z,4.90
2023-08-11T11:49:29.168Z,6.60
2023-08-11T11:52:01.767Z,5.40
2023-08-11T11:54:31.190Z,4.10
2023-08-11T11:57:04.723Z,5.10
2023-08-11T11:59:34.996Z,3.50
2023-08-11T12:02:03.426Z,8.10
2023-08-11T12:04:31.866Z,4.40
2023-08-11T12:07:00.934Z,3.60
2023-08-11T12:09:29.847Z,3.60
2023-08-11T12:11:57.899Z,4.80
2023-08-11T12:14:29.106Z,2.60
2023-08-11T12:16:58.446Z,3.60
2023-08-11T12:19:26.674Z,3.40
2023-08-11T12:21:54.810Z,3.10
2023-08-11T12:24:23.673Z,3.50
2023-08-11T12:26:51.653Z,4.30
2023-08-11T12:29:19.744Z,4.30
2023-08-11T12:31:47.840Z,4.70
2023-08-11T12:34:15.711Z,6.20
2023-08-11T12:36:43.521Z,3.40
2023-08-11T12:39:11.404Z,3.40
2023-08-11T12:41:40.235Z,3.30
2023-08-11T12:44:08.291Z,5.90
2023-08-11T12:46:37.794Z,3.50
2023-08-11T12:49:05.792Z,4.70
2023-08-11T12:51:33.939Z,2.90
2023-08-11T12:54:02.161Z,3.70
2023-08-11T12:56:30.104Z,3.60
2023-08-11T12:58:58.290Z,3.60
2023-08-11T13:01:27.155Z,7.10
2023-08-11T13:03:56.941Z,4.70
2023-08-11T13:06:25.130Z,6.50
2023-08-11T13:08:53.108Z,5.40
2023-08-11T13:11:21.054Z,4.00
2023-08-11T13:13:48.948Z,3.10
2023-08-11T13:16:17.531Z,3.90
2023-08-11T13:18:45.700Z,7.70
2023-08-11T13:21:13.533Z,5.50
2023-08-11T13:23:41.563Z,3.90
2023-08-11T13:26:09.963Z,3.10
2023-08-11T13:28:37.914Z,3.60
2023-08-11T13:31:06.039Z,3.30
2023-08-11T13:33:34.635Z,2.80
2023-08-11T13:36:02.837Z,4.30
2023-08-11T13:38:31.230Z,3.10
2023-08-11T13:40:59.237Z,4.80
2023-08-11T13:43:27.241Z,3.80
2023-08-11T13:45:55.087Z,4.20
2023-08-11T13:48:25.087Z,3.30
2023-08-11T13:50:53.566Z,3.00
2023-08-11T13:53:21.573Z,4.00
2023-08-11T13:55:49.637Z,7.40
2023-08-11T13:58:17.452Z,6.00
2023-08-11T14:00:45.513Z,5.90
2023-08-11T14:03:13.467Z,7.20
2023-08-11T14:05:41.415Z,6.80
2023-08-11T14:08:09.261Z,5.30
2023-08-11T14:10:37.111Z,5.40
2023-08-11T14:13:08.432Z,3.50
2023-08-11T14:15:38.584Z,5.90
2023-08-11T14:18:07.527Z,6.00
2023-08-11T14:20:35.664Z,3.50
2023-08-11T14:23:03.647Z,4.80
2023-08-11T14:25:31.484Z,7.50
2023-08-11T14:27:59.558Z,4.90
2023-08-11T14:30:28.887Z,3.50
2023-08-11T14:32:56.781Z,3.30
2023-08-11T14:35:25.195Z,6.90
2023-08-11T14:37:53.136Z,3.30
2023-08-11T14:40:21.205Z,6.50
2023-08-11T14:42:50.454Z,3.50
2023-08-11T14:45:18.353Z,5.90
2023-08-11T14:47:46.823Z,4.40
2023-08-11T14:50:14.776Z,5.40
2023-08-11T14:52:42.795Z,5.50
2023-08-11T14:55:10.632Z,9.40
2023-08-11T14:57:38.389Z,3.50
2023-08-11T15:00:09.536Z,4.20
2023-08-11T15:02:37.501Z,3.20
2023-08-11T15:05:06.085Z,2.50
2023-08-11T15:07:34.044Z,6.80
2023-08-11T15:10:01.944Z,3.50
2023-08-11T15:12:29.808Z,9.70
2023-08-11T15:14:57.741Z,4.80
2023-08-11T15:17:25.564Z,10.90
2023-08-11T15:19:53.648Z,3.60
2023-08-11T15:22:21.469Z,3.60
2023-08-11T15:24:49.265Z,5.30
2023-08-11T15:27:19.246Z,5.70
2023-08-11T15:29:47.760Z,4.40
2023-08-11T15:32:15.610Z,3.90
2023-08-11T15:34:43.479Z,4.70
2023-08-11T15:37:12.466Z,2.40
2023-08-11T15:39:41.973Z,3.30
2023-08-11T15:42:10.251Z,2.50
2023-08-11T15:44:38.634Z,4.00
2023-08-11T15:47:06.898Z,4.00
2023-08-11T15:49:34.879Z,3.70
2023-08-11T15:52:02.671Z,6.50
2023-08-11T15:54:30.624Z,5.00
2023-08-11T15:56:59.196Z,4.50
2023-08-11T15:59:27.356Z,2.50
2023-08-11T16:02:14.541Z,5.90
2023-08-11T16:04:43.072Z,12.00
2023-08-11T16:07:11.057Z,3.90
2023-08-11T16:09:39.175Z,10.30
2023-08-11T16:12:07.263Z,4.60
2023-08-11T16:14:35.357Z,8.00
2023-08-11T16:17:03.391Z,9.80
2023-08-11T16:19:31.521Z,3.90
2023-08-11T16:21:59.468Z,4.20
2023-08-11T16:24:27.461Z,3.20
2023-08-11T16:26:55.960Z,5.40
2023-08-11T16:29:23.954Z,6.40
2023-08-11T16:31:52.105Z,4.60
2023-08-11T16:34:24.621Z,5.00
2023-08-11T16:36:53.221Z,4.80
2023-08-11T16:39:21.135Z,3.10
2023-08-11T16:41:48.973Z,5.80
2023-08-11T16:44:16.727Z,5.80
2023-08-11T16:46:44.641Z,8.50
2023-08-11T16:49:12.601Z,4.10
2023-08-11T16:51:40.485Z,3.60
2023-08-11T16:54:08.256Z,5.10
2023-08-11T16:56:36.048Z,10.90
2023-08-11T16:59:04.044Z,6.10
2023-08-11T17:01:31.944Z,2.50
2023-08-11T17:04:00.053Z,4.50
2023-08-11T17:06:28.491Z,11.70
2023-08-11T17:08:56.387Z,3.30
2023-08-11T17:11:24.421Z,5.80
2023-08-11T17:13:52.533Z,3.80
2023-08-11T17:16:20.839Z,9.10
2023-08-11T17:18:51.191Z,9.40
2023-08-11T17:21:20.168Z,3.90
2023-08-11T17:23:48.854Z,7.50
2023-08-11T17:26:17.062Z,10.00
2023-08-11T17:28:45.285Z,14.40
2023-08-11T17:31:13.210Z,8.20
2023-08-11T17:33:41.449Z,6.30
2023-08-11T17:36:10.176Z,8.90
2023-08-11T17:38:38.267Z,6.70
2023-08-11T17:41:06.833Z,7.90
2023-08-11T17:43:34.792Z,9.40
2023-08-11T17:46:02.983Z,5.80
2023-08-11T17:48:31.040Z,17.00
2023-08-11T17:50:59.025Z,16.30
2023-08-11T17:53:27.180Z,9.30
2023-08-11T17:55:55.111Z,7.80
2023-08-11T17:58:23.094Z,7.50
2023-08-11T18:00:51.015Z,11.40
2023-08-11T18:03:19.145Z,10.50
2023-08-11T18:05:47.623Z,9.90
2023-08-11T18:08:15.565Z,14.10
2023-08-11T18:10:43.659Z,7.20
2023-08-11T18:13:12.280Z,13.80
2023-08-11T18:15:40.833Z,8.40
2023-08-11T18:18:09.138Z,7.60
2023-08-11T18:20:37.070Z,6.50
2023-08-11T18:23:04.996Z,10.20
2023-08-11T18:25:32.904Z,16.10
2023-08-11T18:28:00.804Z,15.40
2023-08-11T18:30:29.408Z,11.50
2023-08-11T18:32:57.611Z,13.90
2023-08-11T18:35:26.899Z,8.50
2023-08-11T18:37:54.811Z,8.10
2023-08-11T18:40:22.816Z,10.40
2023-08-11T18:42:51.299Z,25.70
2023-08-11T18:45:19.243Z,11.90
2023-08-11T18:47:48.106Z,13.30
2023-08-11T18:50:16.301Z,6.00
2023-08-11T18:52:44.352Z,9.40
2023-08-11T18:55:12.181Z,9.30
2023-08-11T18:57:40.294Z,10.30
2023-08-11T19:00:10.126Z,8.90
2023-08-11T19:02:38.246Z,14.50
2023-08-11T19:05:07.117Z,7.30
2023-08-11T19:07:34.941Z,11.40
2023-08-11T19:10:02.962Z,8.90
2023-08-11T19:12:30.984Z,11.00
2023-08-11T19:14:59.087Z,11.70
2023-08-11T19:17:27.516Z,19.80
2023-08-11T19:19:55.513Z,21.50
2023-08-11T19:22:24.036Z,33.50
2023-08-11T19:24:51.977Z,24.80
2023-08-11T19:27:19.896Z,26.70
2023-08-11T19:29:47.883Z,21.90
2023-08-11T19:32:16.246Z,21.00
2023-08-11T19:34:44.071Z,24.70
2023-08-11T19:37:12.027Z,42.90
2023-08-11T19:39:39.921Z,47.20
2023-08-11T19:42:07.927Z,60.60
2023-08-11T19:44:37.481Z,51.10
2023-08-11T19:47:05.433Z,35.20
2023-08-11T19:49:33.364Z,27.20
2023-08-11T19:52:01.354Z,23.90
2023-08-11T19:54:29.438Z,15.70
2023-08-11T19:56:57.444Z,19.60
2023-08-11T19:59:25.199Z,20.10
2023-08-11T20:01:53.038Z,21.70
2023-08-11T20:04:22.153Z,22.60
2023-08-11T20:06:50.656Z,20.10
2023-08-11T20:09:20.444Z,17.10
2023-08-11T20:11:48.449Z,19.70
2023-08-11T20:14:17.138Z,15.20
2023-08-11T20:16:46.363Z,16.40
2023-08-11T20:19:14.341Z,12.40
2023-08-11T20:21:43.672Z,10.10
2023-08-11T20:24:12.084Z,13.40
2023-08-11T20:26:39.980Z,11.00
2023-08-11T20:29:07.906Z,15.10
2023-08-11T20:31:36.042Z,12.80
2023-08-11T20:34:04.143Z,12.50
2023-08-11T20:36:32.088Z,14.50
2023-08-11T20:39:00.117Z,12.00
2023-08-11T20:41:27.840Z,9.80
2023-08-11T20:43:55.858Z,16.00
2023-08-11T20:46:23.935Z,12.00
2023-08-11T20:48:51.850Z,12.60
2023-08-11T20:51:19.793Z,9.30
2023-08-11T20:53:48.090Z,14.30
2023-08-11T20:56:16.014Z,14.00
2023-08-11T20:58:43.902Z,16.50
2023-08-11T21:01:11.876Z,16.10
2023-08-11T21:03:39.890Z,13.80
2023-08-11T21:06:07.916Z,16.30
2023-08-11T21:08:35.838Z,20.00
2023-08-11T21:11:03.986Z,17.70
2023-08-11T21:13:32.366Z,19.00
2023-08-11T21:16:00.590Z,17.10
2023-08-11T21:18:28.522Z,17.40
2023-08-11T21:20:56.680Z,19.80
2023-08-11T21:23:24.990Z,17.20
2023-08-11T21:25:52.820Z,19.10
2023-08-11T21:28:20.975Z,19.70
2023-08-11T21:31:03.937Z,12.30
2023-08-11T21:33:39.754Z,18.00
2023-08-11T21:36:07.620Z,18.70
2023-08-11T21:38:35.458Z,15.70
2023-08-11T21:41:03.556Z,14.00
2023-08-11T21:43:31.561Z,12.80
2023-08-11T21:45:59.414Z,17.10
2023-08-11T21:48:27.331Z,11.90
2023-08-11T21:50:56.661Z,13.50
2023-08-11T21:53:24.581Z,14.80
2023-08-11T21:55:52.541Z,14.90
2023-08-11T21:58:21.467Z,15.20
2023-08-11T22:00:50.327Z,19.60
2023-08-11T22:03:18.549Z,15.40
2023-08-11T22:05:46.775Z,14.60
2023-08-11T22:08:14.678Z,15.90
2023-08-11T22:10:45.801Z,16.50
2023-08-11T22:13:14.261Z,17.20
2023-08-11T22:15:42.228Z,14.10
2023-08-11T22:18:10.601Z,20.30
2023-08-11T22:20:38.632Z,15.80
2023-08-11T22:23:06.581Z,19.40
2023-08-11T22:25:35.301Z,16.50
2023-08-11T22:28:03.410Z,17.90
2023-08-11T22:30:31.379Z,13.90
2023-08-11T22:32:59.440Z,11.80
2023-08-11T22:35:27.790Z,15.60
2023-08-11T22:37:56.282Z,11.30
2023-08-11T22:40:24.367Z,19.40
2023-08-11T22:42:52.224Z,11.60
2023-08-11T22:45:21.751Z,13.10
2023-08-11T22:47:50.923Z,12.50
2023-08-11T22:50:18.889Z,12.10
2023-08-11T22:52:46.791Z,9.80
2023-08-11T22:55:15.359Z,13.10
2023-08-11T22:57:43.697Z,11.40
2023-08-11T23:00:13.763Z,9.10
2023-08-11T23:02:41.842Z,11.30
2023-08-11T23:05:10.581Z,10.50
2023-08-11T23:07:40.400Z,10.30
2023-08-11T23:10:08.762Z,12.40
2023-08-11T23:12:36.604Z,8.80
2023-08-11T23:15:06.387Z,8.60
2023-08-11T23:17:34.506Z,9.40
2023-08-11T23:20:02.453Z,12.00
2023-08-11T23:22:30.571Z,7.60
2023-08-11T23:24:59.576Z,12.60
2023-08-11T23:27:31.658Z,6.30
2023-08-11T23:30:01.322Z,13.30
2023-08-11T23:32:30.688Z,8.10
2023-08-11T23:35:02.364Z,8.20
2023-08-11T23:37:30.367Z,7.40
2023-08-11T23:39:59.014Z,12.40
2023-08-11T23:42:28.430Z,13.80
2023-08-11T23:44:56.435Z,9.20
2023-08-11T23:47:24.542Z,13.00
2023-08-11T23:49:52.723Z,8.00
2023-08-11T23:52:20.684Z,22.20
2023-08-11T23:54:54.789Z,25.40
2023-08-11T23:57:23.265Z,35.60
2023-08-11T23:59:51.139Z,39.30
